Time;durP1;ratioP1;P1;durP2;ratioP2;P2;SDS_P1;SDS_P2;PMS_P1;PMS_P2;Temp;Humidity;BMP_temperature;BMP_pressure;BME280_temperature;BME280_humidity;BME280_pressure;Samples;Min_cycle;Max_cycle;Signal;HPM_P1;HPM_P2
2022/03/26 00:00:19;;;;;;;24.08;13.35;;;7.70;87.50;;;;;;4874716;29;20672;-85
2022/03/26 00:02:45;;;;;;;26.40;13.43;;;7.70;87.40;;;;;;4895535;29;20053;-84
2022/03/26 00:05:11;;;;;;;27.65;14.73;;;7.60;89.00;;;;;;4893400;29;20041;-84
2022/03/26 00:07:36;;;;;;;25.73;13.88;;;7.60;90.20;;;;;;4892264;29;20059;-85
2022/03/26 00:10:04;;;;;;;24.55;13.45;;;7.50;90.70;;;;;;4893580;29;20478;-85
2022/03/26 00:12:30;;;;;;;24.30;12.80;;;7.50;91.10;;;;;;4892188;29;20051;-85
2022/03/26 00:14:55;;;;;;;27.60;14.75;;;7.50;90.10;;;;;;4880209;29;20045;-85
2022/03/26 00:17:21;;;;;;;25.98;13.55;;;7.40;91.00;;;;;;4893872;29;20064;-85
2022/03/26 00:19:47;;;;;;;28.30;13.88;;;7.40;91.60;;;;;;4894491;29;20052;-84
2022/03/26 00:22:12;;;;;;;21.23;12.63;;;7.40;91.50;;;;;;4894951;29;20040;-85
2022/03/26 00:24:38;;;;;;;24.25;13.23;;;7.40;91.70;;;;;;4880087;29;20120;-85
2022/03/26 00:27:04;;;;;;;25.55;13.75;;;7.30;91.60;;;;;;4894121;29;20410;-85
2022/03/26 00:29:30;;;;;;;30.00;13.95;;;7.30;91.70;;;;;;4891542;29;20056;-84
2022/03/26 00:31:55;;;;;;;25.38;13.25;;;7.20;92.00;;;;;;4877036;29;21403;-85
2022/03/26 00:34:21;;;;;;;24.33;13.63;;;7.30;92.30;;;;;;4880887;29;20083;-85
2022/03/26 00:36:46;;;;;;;27.38;13.30;;;7.20;92.80;;;;;;4879638;29;20088;-85
2022/03/26 00:39:12;;;;;;;24.80;13.82;;;7.20;93.70;;;;;;4895718;29;20448;-85
2022/03/26 00:41:38;;;;;;;28.08;14.07;;;7.20;94.10;;;;;;4895343;29;20037;-85
2022/03/26 00:44:03;;;;;;;25.08;13.13;;;7.10;94.00;;;;;;4894961;29;20045;-85
2022/03/26 00:46:29;;;;;;;28.30;14.18;;;7.10;94.30;;;;;;4862007;29;20068;-85
2022/03/26 00:48:58;;;;;;;26.42;13.63;;;7.10;94.40;;;;;;4891637;29;20040;-85
2022/03/26 00:51:24;;;;;;;28.08;14.57;;;7.10;94.90;;;;;;4894291;29;20048;-85
2022/03/26 00:53:50;;;;;;;26.77;13.88;;;7.10;95.50;;;;;;4895871;29;20410;-85
2022/03/26 00:56:16;;;;;;;24.48;12.18;;;7.00;95.90;;;;;;4869141;29;20575;-84
2022/03/26 00:58:41;;;;;;;21.52;12.38;;;7.00;96.30;;;;;;4877969;29;20379;-84
2022/03/26 01:01:07;;;;;;;27.08;13.95;;;6.90;97.30;;;;;;4895597;29;20047;-84
2022/03/26 01:03:34;;;;;;;26.98;13.43;;;6.90;98.00;;;;;;4886106;29;20052;-85
2022/03/26 01:06:00;;;;;;;23.58;12.75;;;6.90;98.70;;;;;;4880344;29;20501;-84
2022/03/26 01:08:25;;;;;;;24.73;13.38;;;6.80;99.20;;;;;;4893138;29;20044;-85
2022/03/26 01:10:51;;;;;;;25.55;13.13;;;6.80;99.60;;;;;;4893854;29;20044;-84
2022/03/26 01:13:18;;;;;;;24.00;13.60;;;6.70;99.60;;;;;;4893221;29;20044;-85
2022/03/26 01:15:43;;;;;;;26.92;13.43;;;6.70;99.90;;;;;;4907515;29;20462;-84
2022/03/26 01:18:09;;;;;;;20.33;11.50;;;6.70;99.30;;;;;;4911817;29;20134;-84
2022/03/26 01:20:35;;;;;;;23.88;12.35;;;6.60;98.40;;;;;;4880075;29;20040;-85
2022/03/26 01:23:02;;;;;;;25.88;14.07;;;6.50;99.00;;;;;;4896149;29;20466;-85
2022/03/26 01:25:28;;;;;;;26.92;14.75;;;6.50;98.70;;;;;;4879634;29;20047;-84
2022/03/26 01:27:53;;;;;;;24.60;13.65;;;6.50;99.10;;;;;;4915828;29;20044;-85
2022/03/26 01:30:19;;;;;;;20.95;12.52;;;6.50;98.70;;;;;;4876021;29;20037;-85
2022/03/26 01:32:45;;;;;;;25.38;13.80;;;6.40;98.20;;;;;;4893059;29;20454;-85
2022/03/26 01:35:11;;;;;;;28.85;14.48;;;6.40;99.40;;;;;;4894006;29;20036;-85
2022/03/26 01:37:37;;;;;;;29.15;15.05;;;6.40;99.20;;;;;;4883345;29;20073;-85
2022/03/26 01:40:05;;;;;;;27.70;14.48;;;6.40;99.60;;;;;;4882495;29;20130;-84
2022/03/26 01:42:30;;;;;;;29.55;15.23;;;6.40;99.90;;;;;;4916368;29;20040;-85
2022/03/26 01:44:56;;;;;;;25.92;14.55;;;6.40;99.90;;;;;;4878390;29;20050;-85
2022/03/26 01:47:22;;;;;;;29.10;15.60;;;6.40;99.90;;;;;;4892132;29;20044;-84
2022/03/26 01:49:48;;;;;;;26.52;14.23;;;6.30;99.90;;;;;;4898089;29;20040;-84
2022/03/26 01:52:13;;;;;;;26.63;14.88;;;6.30;99.90;;;;;;4901140;29;20051;-85
2022/03/26 01:54:40;;;;;;;29.13;14.82;;;6.30;99.90;;;;;;4902156;29;20048;-84
2022/03/26 01:57:10;;;;;;;27.08;15.32;;;6.30;99.90;;;;;;4883385;29;22076;-85
2022/03/26 01:59:37;;;;;;;32.70;15.77;;;6.30;99.90;;;;;;4883142;29;20083;-84
2022/03/26 02:02:03;;;;;;;27.13;14.98;;;6.30;99.90;;;;;;4890733;29;20402;-85
2022/03/26 02:07:05;;;;;;;28.13;15.93;;;6.20;99.90;;;;;;5092022;23;20492;-85
2022/03/26 02:09:35;;;;;;;32.60;15.43;;;6.20;99.90;;;;;;4941012;29;20086;-85
2022/03/26 02:12:02;;;;;;;35.40;17.50;;;6.20;99.90;;;;;;4921623;29;20048;-85
2022/03/26 02:14:28;;;;;;;32.63;17.10;;;6.20;99.90;;;;;;4921343;29;20067;-84
2022/03/26 02:16:53;;;;;;;29.73;16.38;;;6.20;99.90;;;;;;4922708;29;20071;-84
2022/03/26 02:19:20;;;;;;;33.10;16.92;;;6.20;99.90;;;;;;4918140;29;20028;-84
2022/03/26 02:21:49;;;;;;;31.83;17.80;;;6.10;99.90;;;;;;4905093;29;20480;-85
2022/03/26 02:24:15;;;;;;;33.67;17.08;;;6.10;99.90;;;;;;4918361;29;20044;-84
2022/03/26 02:26:42;;;;;;;31.20;17.33;;;6.10;99.90;;;;;;4901071;29;20048;-85
2022/03/26 02:29:12;;;;;;;31.58;17.17;;;6.10;99.90;;;;;;4922025;29;20040;-84
2022/03/26 02:31:38;;;;;;;35.40;18.13;;;6.10;99.90;;;;;;4919518;29;20119;-84
2022/03/26 02:34:06;;;;;;;33.83;18.15;;;6.00;99.90;;;;;;4922511;29;20067;-85
2022/03/26 02:36:32;;;;;;;36.20;18.92;;;6.00;99.90;;;;;;4950176;29;20040;-85
2022/03/26 02:38:58;;;;;;;33.53;17.92;;;6.00;99.90;;;;;;4903870;29;20050;-84
2022/03/26 02:41:24;;;;;;;29.45;16.30;;;6.00;99.90;;;;;;4904573;29;20051;-85
2022/03/26 02:43:50;;;;;;;32.22;16.05;;;5.90;99.90;;;;;;4919786;29;20031;-84
2022/03/26 02:46:15;;;;;;;36.00;17.23;;;5.90;99.90;;;;;;4922702;29;20032;-84
2022/03/26 02:48:44;;;;;;;35.83;18.02;;;5.90;99.90;;;;;;4909053;29;20552;-85
2022/03/26 02:51:10;;;;;;;38.00;18.33;;;5.90;99.90;;;;;;4906685;29;20040;-85
2022/03/26 02:53:35;;;;;;;40.80;20.27;;;5.90;99.90;;;;;;4904166;29;20403;-85
2022/03/26 02:56:01;;;;;;;37.15;18.42;;;5.90;99.90;;;;;;4905550;29;20047;-85
2022/03/26 02:58:26;;;;;;;36.13;18.00;;;5.90;99.90;;;;;;4919023;29;20044;-84
2022/03/26 03:00:52;;;;;;;44.53;20.48;;;5.90;99.90;;;;;;4936806;29;20031;-84
2022/03/26 03:03:18;;;;;;;38.13;18.90;;;5.80;99.90;;;;;;4907398;29;20096;-84
2022/03/26 03:05:46;;;;;;;38.13;19.15;;;5.80;99.90;;;;;;4924501;29;20417;-84
2022/03/26 03:08:14;;;;;;;39.60;20.67;;;5.80;99.90;;;;;;4918589;29;20071;-85
2022/03/26 03:10:42;;;;;;;45.72;20.75;;;5.80;99.90;;;;;;4918978;29;20118;-85
2022/03/26 03:13:08;;;;;;;38.55;18.80;;;5.80;99.90;;;;;;4903324;29;20141;-85
2022/03/26 03:15:33;;;;;;;35.72;18.73;;;5.80;99.90;;;;;;4936258;29;20457;-85
2022/03/26 03:17:59;;;;;;;39.08;19.88;;;5.80;99.90;;;;;;4902600;29;20071;-85
2022/03/26 03:20:25;;;;;;;39.47;18.63;;;5.70;99.90;;;;;;4916240;29;20486;-84
2022/03/26 03:22:51;;;;;;;37.72;19.70;;;5.70;99.90;;;;;;4919751;29;20044;-85
2022/03/26 03:25:18;;;;;;;39.28;20.40;;;5.70;99.90;;;;;;4915162;29;20039;-85
2022/03/26 03:27:43;;;;;;;39.10;20.08;;;5.70;99.90;;;;;;4918215;29;20124;-85
2022/03/26 03:30:10;;;;;;;42.05;20.45;;;5.60;99.90;;;;;;4901255;29;20115;-85
2022/03/26 03:32:36;;;;;;;44.22;21.38;;;5.60;99.90;;;;;;4901540;29;20094;-85
2022/03/26 03:35:03;;;;;;;37.92;18.45;;;5.60;99.90;;;;;;4915957;29;20047;-85
2022/03/26 03:37:29;;;;;;;39.97;20.50;;;5.60;99.90;;;;;;4918600;29;20040;-85
2022/03/26 03:39:55;;;;;;;42.78;21.08;;;5.60;99.90;;;;;;4907976;29;20408;-85
2022/03/26 03:42:20;;;;;;;35.63;18.73;;;5.60;99.90;;;;;;4903007;29;20123;-84
2022/03/26 03:44:46;;;;;;;47.20;24.20;;;5.50;99.90;;;;;;4916905;29;20441;-85
2022/03/26 03:47:11;;;;;;;53.28;25.35;;;5.60;99.90;;;;;;4903374;29;20046;-85
2022/03/26 03:49:37;;;;;;;45.22;22.98;;;5.50;99.90;;;;;;4935121;29;20094;-84
2022/03/26 03:52:04;;;;;;;46.33;21.92;;;5.50;99.90;;;;;;4918322;29;20039;-85
2022/03/26 03:54:30;;;;;;;38.38;19.67;;;5.50;99.90;;;;;;4902049;29;20039;-85
2022/03/26 03:56:56;;;;;;;47.50;24.73;;;5.50;99.90;;;;;;4900944;29;20051;-85
2022/03/26 03:59:22;;;;;;;45.92;22.63;;;5.50;99.90;;;;;;4915886;29;20054;-85
2022/03/26 04:01:47;;;;;;;46.25;22.42;;;5.40;99.90;;;;;;4902821;29;20036;-85
2022/03/26 04:04:13;;;;;;;42.45;21.95;;;5.40;99.90;;;;;;4914184;29;20036;-85
2022/03/26 04:06:39;;;;;;;40.22;20.52;;;5.40;99.90;;;;;;4901722;29;20047;-84
2022/03/26 04:09:04;;;;;;;40.33;20.75;;;5.30;99.90;;;;;;4898041;29;20445;-85
2022/03/26 04:11:30;;;;;;;41.92;20.55;;;5.30;99.90;;;;;;4916222;29;20461;-85
2022/03/26 04:13:56;;;;;;;42.17;20.92;;;5.30;99.90;;;;;;4934227;29;20047;-85
2022/03/26 04:16:22;;;;;;;43.10;20.38;;;5.30;99.90;;;;;;4916736;29;20469;-85
2022/03/26 04:18:48;;;;;;;46.70;23.63;;;5.30;99.90;;;;;;4899605;29;20508;-85
2022/03/26 04:21:15;;;;;;;45.90;23.60;;;5.30;99.90;;;;;;4900740;29;20122;-85
2022/03/26 04:23:41;;;;;;;45.83;22.27;;;5.30;99.90;;;;;;4916871;29;20086;-85
2022/03/26 04:26:07;;;;;;;43.38;22.20;;;5.30;99.90;;;;;;4893962;29;20050;-85
2022/03/26 04:28:33;;;;;;;47.40;23.58;;;5.20;99.90;;;;;;4899233;29;20042;-85
2022/03/26 04:30:59;;;;;;;50.80;23.75;;;5.20;99.90;;;;;;4901048;29;20432;-85
2022/03/26 04:33:25;;;;;;;43.75;22.42;;;5.20;99.90;;;;;;4934114;29;20035;-85
2022/03/26 04:35:50;;;;;;;43.42;21.75;;;5.20;99.90;;;;;;4897765;29;20043;-85
2022/03/26 04:38:16;;;;;;;46.80;24.30;;;5.20;99.90;;;;;;4915522;29;20067;-84
2022/03/26 04:40:42;;;;;;;41.97;20.65;;;5.10;99.90;;;;;;4913318;29;20158;-85
2022/03/26 04:43:08;;;;;;;43.58;20.40;;;5.20;99.90;;;;;;4896651;29;20131;-85
2022/03/26 04:45:33;;;;;;;49.47;24.45;;;5.20;99.90;;;;;;4892174;29;20051;-85
2022/03/26 04:48:00;;;;;;;45.33;23.10;;;5.10;99.90;;;;;;4899921;29;20099;-84
2022/03/26 04:50:26;;;;;;;48.42;24.80;;;5.10;99.90;;;;;;4915664;29;20126;-85
2022/03/26 04:52:52;;;;;;;52.80;25.98;;;5.10;99.90;;;;;;4898249;29;20052;-85
2022/03/26 04:55:18;;;;;;;54.30;26.58;;;5.10;99.90;;;;;;4900504;29;20052;-85
2022/03/26 04:57:51;;;;;;;48.30;24.38;;;5.00;99.90;;;;;;4923680;29;20510;-85
2022/03/26 05:00:18;;;;;;;53.13;25.55;;;5.00;99.90;;;;;;4896256;29;20481;-84
2022/03/26 05:02:44;;;;;;;49.88;24.67;;;5.00;99.90;;;;;;4913958;29;20256;-85
2022/03/26 05:05:12;;;;;;;50.58;25.52;;;5.00;99.90;;;;;;4933610;29;20524;-85
2022/03/26 05:07:48;;;;;;;51.63;23.48;;;4.90;99.90;;;;;;4895320;29;20131;-84
2022/03/26 05:10:17;;;;;;;50.40;22.70;;;4.90;99.90;;;;;;4899181;29;20575;-85
2022/03/26 05:12:44;;;;;;;39.70;19.80;;;4.90;99.90;;;;;;4918315;29;20044;-84
2022/03/26 05:15:12;;;;;;;46.35;23.90;;;4.90;99.90;;;;;;4919987;29;20531;-85
2022/03/26 05:17:38;;;;;;;54.85;25.40;;;4.90;99.90;;;;;;4935791;29;20083;-85
2022/03/26 05:20:06;;;;;;;54.53;25.00;;;4.90;99.90;;;;;;4935224;29;20099;-85
2022/03/26 05:22:31;;;;;;;44.45;22.80;;;4.90;99.90;;;;;;4902547;29;20075;-84
2022/03/26 05:24:57;;;;;;;48.33;22.55;;;4.80;99.90;;;;;;4904516;29;20047;-84
2022/03/26 05:27:23;;;;;;;51.65;25.25;;;4.90;99.90;;;;;;4902678;29;20046;-85
2022/03/26 05:29:49;;;;;;;44.53;20.65;;;4.80;99.90;;;;;;4916884;29;20043;-85
2022/03/26 05:32:15;;;;;;;49.88;22.80;;;4.80;99.90;;;;;;4903996;29;20044;-84
2022/03/26 05:34:42;;;;;;;47.08;23.02;;;4.80;99.90;;;;;;4897832;29;20533;-84
2022/03/26 05:37:08;;;;;;;53.53;24.42;;;4.80;99.90;;;;;;4918602;29;20409;-84
2022/03/26 05:39:33;;;;;;;38.53;19.60;;;4.80;99.90;;;;;;4917610;29;20050;-84
2022/03/26 05:41:59;;;;;;;50.47;23.13;;;4.80;99.90;;;;;;4926982;29;20039;-85
2022/03/26 05:44:25;;;;;;;53.97;24.42;;;4.80;99.90;;;;;;4910799;29;20413;-85
2022/03/26 05:46:50;;;;;;;45.58;20.67;;;4.80;99.90;;;;;;4915593;29;20127;-84
2022/03/26 05:49:17;;;;;;;48.10;23.15;;;4.80;99.90;;;;;;4918731;29;20031;-85
2022/03/26 05:51:44;;;;;;;55.15;26.50;;;4.90;99.90;;;;;;4916713;29;20044;-85
2022/03/26 05:54:09;;;;;;;54.17;24.65;;;4.90;99.90;;;;;;4916350;29;20035;-85
2022/03/26 05:56:36;;;;;;;69.88;24.33;;;4.90;99.90;;;;;;4919553;29;20116;-85
2022/03/26 05:59:12;;;;;;;59.10;24.23;;;4.90;99.90;;;;;;4917858;29;20484;-85
2022/03/26 06:01:38;;;;;;;49.28;21.52;;;4.90;99.90;;;;;;4917629;29;20103;-85
2022/03/26 06:04:04;;;;;;;49.13;20.45;;;4.90;99.90;;;;;;4935409;29;20560;-84
2022/03/26 06:06:29;;;;;;;48.03;20.67;;;5.00;99.90;;;;;;4914604;29;20052;-84
2022/03/26 06:08:55;;;;;;;52.13;24.98;;;5.00;99.90;;;;;;4901743;29;20476;-85
2022/03/26 06:11:21;;;;;;;51.75;24.98;;;5.00;99.90;;;;;;4901710;29;20119;-85
2022/03/26 06:13:46;;;;;;;60.03;27.67;;;5.00;99.90;;;;;;4899713;29;20036;-85
2022/03/26 06:16:13;;;;;;;50.03;23.20;;;5.00;99.90;;;;;;4895846;29;20060;-85
2022/03/26 06:18:39;;;;;;;55.90;26.17;;;5.00;99.90;;;;;;4917938;29;20077;-85
2022/03/26 06:21:05;;;;;;;67.55;29.92;;;5.10;99.90;;;;;;4904124;29;20039;-84
2022/03/26 06:23:34;;;;;;;56.38;28.05;;;5.10;99.90;;;;;;4917796;29;20083;-85
2022/03/26 06:25:59;;;;;;;64.93;31.88;;;5.10;99.90;;;;;;4932763;29;20040;-84
2022/03/26 06:28:26;;;;;;;62.55;30.73;;;5.10;99.90;;;;;;4917935;29;20503;-84
2022/03/26 06:30:51;;;;;;;62.00;28.77;;;5.20;99.90;;;;;;4919157;29;20053;-85
2022/03/26 06:33:17;;;;;;;70.15;32.63;;;5.20;99.90;;;;;;4902483;29;20031;-84
2022/03/26 06:35:46;;;;;;;71.20;32.08;;;5.30;99.90;;;;;;4916473;29;20044;-85
2022/03/26 06:38:12;;;;;;;67.18;30.92;;;5.30;99.90;;;;;;4918221;29;20437;-84
2022/03/26 06:40:39;;;;;;;75.72;33.50;;;5.40;99.90;;;;;;4935794;29;20043;-85
2022/03/26 06:43:05;;;;;;;80.20;37.40;;;5.40;99.90;;;;;;4907654;29;20032;-85
2022/03/26 06:45:31;;;;;;;79.65;35.60;;;5.50;99.90;;;;;;4916652;29;20048;-84
2022/03/26 06:47:57;;;;;;;88.10;37.25;;;5.50;99.90;;;;;;4917255;29;20086;-84
2022/03/26 06:50:23;;;;;;;78.47;36.47;;;5.50;99.90;;;;;;4918813;29;20492;-84
2022/03/26 06:52:49;;;;;;;76.00;33.35;;;5.60;99.90;;;;;;4884554;29;20043;-85
2022/03/26 06:55:14;;;;;;;70.70;34.53;;;5.70;99.90;;;;;;4901418;29;20464;-84
2022/03/26 06:57:41;;;;;;;88.53;37.40;;;5.70;99.90;;;;;;4901453;29;20051;-84
2022/03/26 07:00:11;;;;;;;83.85;37.70;;;5.80;99.90;;;;;;4916201;29;20035;-84
2022/03/26 07:02:37;;;;;;;95.10;39.70;;;5.90;99.90;;;;;;4917611;29;20127;-85
2022/03/26 07:05:07;;;;;;;77.63;35.70;;;6.00;99.90;;;;;;4900197;29;20040;-85
2022/03/26 07:07:34;;;;;;;75.93;35.97;;;6.00;99.90;;;;;;4932898;29;20056;-84
2022/03/26 07:10:00;;;;;;;77.47;36.22;;;6.10;99.90;;;;;;4915271;29;20055;-84
2022/03/26 07:12:27;;;;;;;93.80;41.95;;;6.20;99.90;;;;;;4917724;29;20043;-84
2022/03/26 07:14:53;;;;;;;76.32;36.60;;;6.30;99.90;;;;;;4916924;29;20040;-84
2022/03/26 07:17:18;;;;;;;88.22;39.38;;;6.30;99.90;;;;;;4914030;29;20047;-85
2022/03/26 07:19:44;;;;;;;83.53;39.80;;;6.40;99.90;;;;;;4916423;29;20052;-84
2022/03/26 07:22:10;;;;;;;84.15;39.47;;;6.50;99.90;;;;;;4933749;29;20035;-85
2022/03/26 07:24:36;;;;;;;76.82;36.03;;;6.60;99.90;;;;;;4932460;29;20063;-84
2022/03/26 07:27:01;;;;;;;74.53;36.10;;;6.70;99.90;;;;;;4899306;29;20449;-85
2022/03/26 07:29:27;;;;;;;88.28;40.58;;;6.80;99.90;;;;;;4915938;29;20036;-84
2022/03/26 07:31:53;;;;;;;88.07;40.90;;;6.90;99.90;;;;;;4911014;29;20112;-85
2022/03/26 07:34:19;;;;;;;83.10;38.55;;;7.00;99.90;;;;;;4928707;29;20481;-85
2022/03/26 07:36:53;;;;;;;83.32;38.65;;;7.10;99.90;;;;;;4935625;29;20039;-84
2022/03/26 07:39:37;;;;;;;71.93;35.00;;;7.20;99.90;;;;;;4913514;29;20051;-85
2022/03/26 07:42:07;;;;;;;84.00;38.15;;;7.30;99.90;;;;;;4913458;29;20119;-85
2022/03/26 07:44:36;;;;;;;77.40;37.00;;;7.40;99.90;;;;;;4885255;29;20035;-85
2022/03/26 07:47:13;;;;;;;76.65;37.38;;;7.50;99.90;;;;;;4916133;29;20614;-85
2022/03/26 07:49:49;;;;;;;82.53;35.40;;;7.60;99.90;;;;;;4899448;29;20457;-84
2022/03/26 07:52:15;;;;;;;71.03;34.83;;;7.70;99.90;;;;;;4916986;29;20506;-85
2022/03/26 07:54:40;;;;;;;75.05;36.65;;;7.80;99.90;;;;;;4897861;29;20126;-85
2022/03/26 07:57:06;;;;;;;72.10;34.65;;;7.90;99.90;;;;;;4916797;29;20115;-84
2022/03/26 07:59:35;;;;;;;70.13;34.28;;;8.10;99.90;;;;;;4899867;29;20047;-84
2022/03/26 08:02:03;;;;;;;67.80;31.20;;;8.20;99.90;;;;;;4933418;29;20164;-85
2022/03/26 08:04:29;;;;;;;67.93;32.33;;;8.30;99.90;;;;;;4900992;29;20035;-86
2022/03/26 08:06:54;;;;;;;63.53;33.45;;;8.40;99.90;;;;;;4913963;29;20051;-85
2022/03/26 08:09:20;;;;;;;61.25;30.73;;;8.50;99.90;;;;;;4897839;29;20040;-85
2022/03/26 08:11:49;;;;;;;65.07;31.95;;;8.60;99.90;;;;;;4899414;29;20054;-85
2022/03/26 08:14:15;;;;;;;62.70;28.77;;;8.80;99.90;;;;;;4894579;29;20047;-85
2022/03/26 08:16:40;;;;;;;56.78;29.27;;;8.90;99.90;;;;;;4932416;29;20050;-86
2022/03/26 08:19:06;;;;;;;54.13;27.73;;;9.00;99.90;;;;;;4913950;29;20039;-86
2022/03/26 08:21:35;;;;;;;58.35;28.42;;;9.10;99.90;;;;;;4914889;29;20055;-84
2022/03/26 08:24:04;;;;;;;47.30;25.40;;;9.30;99.90;;;;;;4901959;29;20511;-86
2022/03/26 08:26:29;;;;;;;57.75;28.10;;;9.40;99.90;;;;;;4900730;29;20489;-85
2022/03/26 08:29:00;;;;;;;52.85;27.27;;;9.60;99.90;;;;;;4915108;29;20042;-85
2022/03/26 08:31:28;;;;;;;58.78;29.63;;;9.70;99.90;;;;;;4930660;29;20063;-85
2022/03/26 08:33:54;;;;;;;62.33;31.27;;;9.90;99.90;;;;;;4914282;29;20036;-86
2022/03/26 08:36:20;;;;;;;55.78;29.20;;;10.10;99.90;;;;;;4914765;29;20098;-84
2022/03/26 08:38:47;;;;;;;54.55;27.85;;;10.20;99.90;;;;;;4897326;29;20067;-84
2022/03/26 08:41:14;;;;;;;51.70;25.70;;;10.40;99.90;;;;;;4912250;29;20036;-85
2022/03/26 08:43:39;;;;;;;55.70;26.20;;;10.50;99.90;;;;;;4911383;29;20492;-85
2022/03/26 08:46:05;;;;;;;50.28;25.65;;;10.60;99.20;;;;;;4887052;29;20047;-85
2022/03/26 08:48:31;;;;;;;53.95;27.15;;;10.80;98.40;;;;;;4909884;29;20039;-85
2022/03/26 08:50:57;;;;;;;50.65;25.88;;;10.90;97.60;;;;;;4901409;29;20028;-86
2022/03/26 08:53:22;;;;;;;50.80;26.25;;;11.00;97.00;;;;;;4896555;29;20048;-85
2022/03/26 08:55:49;;;;;;;48.92;26.00;;;11.10;96.60;;;;;;4897308;29;20413;-85
2022/03/26 08:58:17;;;;;;;53.42;28.10;;;11.30;96.00;;;;;;4898742;29;20058;-86
2022/03/26 09:00:43;;;;;;;48.53;24.80;;;11.40;94.80;;;;;;4904335;29;20044;-86
2022/03/26 09:03:08;;;;;;;42.88;23.10;;;11.50;94.10;;;;;;4925854;29;20051;-86
2022/03/26 09:05:34;;;;;;;45.30;22.05;;;11.70;93.50;;;;;;4906182;29;20064;-85
2022/03/26 09:07:59;;;;;;;38.28;20.33;;;11.80;91.80;;;;;;4908700;29;20049;-85
2022/03/26 09:10:25;;;;;;;40.90;21.17;;;11.90;91.30;;;;;;4892950;29;20036;-86
2022/03/26 09:12:51;;;;;;;40.58;21.88;;;12.10;90.10;;;;;;4905401;29;20100;-86
2022/03/26 09:15:16;;;;;;;40.40;19.10;;;12.20;89.20;;;;;;4889926;29;20474;-85
2022/03/26 09:17:42;;;;;;;43.70;20.83;;;12.30;87.00;;;;;;4908010;29;20126;-85
2022/03/26 09:20:09;;;;;;;36.28;19.38;;;12.50;84.30;;;;;;4891905;29;20051;-85
2022/03/26 09:22:35;;;;;;;35.30;19.08;;;12.60;82.50;;;;;;4890071;29;20366;-86
2022/03/26 09:25:02;;;;;;;37.80;20.35;;;12.80;82.10;;;;;;4892118;29;20088;-85
2022/03/26 09:27:27;;;;;;;35.00;19.38;;;12.90;81.10;;;;;;4907120;29;20567;-85
2022/03/26 09:29:53;;;;;;;33.67;18.25;;;13.00;79.30;;;;;;4910083;29;20041;-86
2022/03/26 09:32:19;;;;;;;38.05;19.25;;;13.10;78.60;;;;;;4888352;29;20047;-85
2022/03/26 09:34:45;;;;;;;40.72;18.98;;;13.20;78.00;;;;;;4889664;29;20545;-86
2022/03/26 09:37:12;;;;;;;41.53;19.70;;;13.30;75.00;;;;;;4894018;29;20071;-85
2022/03/26 09:39:38;;;;;;;34.53;17.65;;;13.40;74.50;;;;;;4910450;29;20071;-86
2022/03/26 09:42:04;;;;;;;42.40;19.85;;;13.50;73.80;;;;;;4895166;29;20481;-85
2022/03/26 09:44:31;;;;;;;36.30;19.48;;;13.60;72.30;;;;;;4892210;29;20044;-85
2022/03/26 09:46:57;;;;;;;37.20;18.80;;;13.60;71.20;;;;;;4890871;29;20063;-85
2022/03/26 09:49:23;;;;;;;36.28;18.52;;;13.70;70.50;;;;;;4893554;29;20621;-85
2022/03/26 09:51:55;;;;;;;36.35;19.63;;;13.80;70.00;;;;;;4908032;29;20104;-85
2022/03/26 09:54:22;;;;;;;33.97;17.52;;;13.90;68.30;;;;;;4895876;29;20047;-85
2022/03/26 09:56:48;;;;;;;36.28;19.33;;;14.00;68.30;;;;;;4908254;29;20048;-85
2022/03/26 09:59:14;;;;;;;36.97;19.50;;;14.00;68.00;;;;;;4911702;29;20062;-85
2022/03/26 10:01:39;;;;;;;38.35;19.38;;;14.10;68.10;;;;;;4911127;29;20044;-85
2022/03/26 10:04:22;;;;;;;32.40;18.67;;;14.30;67.00;;;;;;4891323;29;20040;-85
2022/03/26 10:06:48;;;;;;;;;;;14.40;64.10;;;;;;4897001;29;20100;-85
2022/03/26 10:09:24;;;;;;;37.50;19.55;;;14.40;60.50;;;;;;4914709;29;19923;-85
2022/03/26 10:11:57;;;;;;;32.17;18.15;;;14.60;63.30;;;;;;4913305;29;20068;-86
2022/03/26 10:14:23;;;;;;;37.20;18.02;;;14.60;62.80;;;;;;4893517;29;20036;-86
2022/03/26 10:16:51;;;;;;;33.20;18.38;;;14.70;62.10;;;;;;4895483;29;20126;-86
2022/03/26 10:19:34;;;;;;;34.25;17.23;;;14.80;60.80;;;;;;4910706;29;20079;-86
2022/03/26 10:22:00;;;;;;;36.47;17.88;;;14.90;59.90;;;;;;4908758;29;20055;-86
2022/03/26 10:24:28;;;;;;;33.53;18.15;;;15.00;60.80;;;;;;4909588;29;20616;-86
2022/03/26 10:26:58;;;;;;;37.03;18.05;;;15.10;59.90;;;;;;4880778;29;20051;-85
2022/03/26 10:29:24;;;;;;;32.92;17.60;;;15.20;59.10;;;;;;4896551;29;20045;-85
2022/03/26 10:34:34;;;;;;;34.13;16.95;;;15.40;59.00;;;;;;4911064;29;20118;-86
2022/03/26 10:37:01;;;;;;;32.40;17.35;;;15.50;58.80;;;;;;4889329;29;20047;-85
2022/03/26 10:39:29;;;;;;;33.25;17.55;;;15.60;58.70;;;;;;4893377;29;20480;-87
2022/03/26 10:41:56;;;;;;;34.47;17.65;;;15.70;57.60;;;;;;4902491;29;20536;-87
2022/03/26 10:44:28;;;;;;;32.45;17.17;;;15.80;57.60;;;;;;4897950;29;20044;-85
2022/03/26 10:46:56;;;;;;;25.20;13.40;;;15.90;57.30;;;;;;4906578;29;20544;-85
2022/03/26 10:49:26;;;;;;;22.35;12.90;;;16.00;57.80;;;;;;4912720;29;20043;-85
2022/03/26 10:51:53;;;;;;;18.50;11.02;;;16.10;57.50;;;;;;4894205;29;20040;-85
2022/03/26 10:54:26;;;;;;;18.48;10.70;;;16.20;58.30;;;;;;4910769;29;20044;-85
2022/03/26 10:56:53;;;;;;;17.38;10.70;;;16.20;58.00;;;;;;4911875;29;20040;-85
2022/03/26 10:59:20;;;;;;;20.02;10.90;;;16.30;57.70;;;;;;4895255;29;20055;-85
2022/03/26 11:01:46;;;;;;;20.45;12.20;;;16.30;58.10;;;;;;4896485;29;20044;-85
2022/03/26 11:04:12;;;;;;;19.20;11.95;;;16.40;59.40;;;;;;4894367;29;21901;-84
2022/03/26 11:06:39;;;;;;;24.20;13.35;;;16.50;59.80;;;;;;4896657;29;20055;-85
2022/03/26 11:09:06;;;;;;;26.85;13.85;;;16.60;59.80;;;;;;4895895;29;20044;-85
2022/03/26 11:11:33;;;;;;;23.50;13.02;;;16.70;59.60;;;;;;4900131;29;20040;-84
2022/03/26 11:14:04;;;;;;;23.88;13.05;;;16.80;59.70;;;;;;4895992;29;20036;-84
2022/03/26 11:16:36;;;;;;;20.88;13.88;;;16.80;60.40;;;;;;4911417;29;20039;-85
2022/03/26 11:19:12;;;;;;;21.60;12.68;;;16.90;60.60;;;;;;4890108;29;20457;-85
2022/03/26 11:22:15;;;;;;;22.00;12.85;;;17.00;61.40;;;;;;4871816;29;20392;-85
2022/03/26 11:25:05;;;;;;;21.48;13.98;;;17.00;61.20;;;;;;4911557;29;20036;-85
2022/03/26 11:27:36;;;;;;;23.85;14.52;;;17.10;62.70;;;;;;4907592;29;20040;-85
2022/03/26 11:30:09;;;;;;;20.00;13.57;;;17.20;62.30;;;;;;4911899;29;20044;-85
2022/03/26 11:32:40;;;;;;;20.58;13.20;;;17.30;61.80;;;;;;4911279;29;20130;-85
2022/03/26 11:35:16;;;;;;;23.17;13.60;;;17.30;61.80;;;;;;4910331;29;20107;-87
2022/03/26 11:37:56;;;;;;;19.40;10.85;;;17.50;61.30;;;;;;4913456;29;20047;-86
2022/03/26 11:40:46;;;;;;;19.98;12.07;;;17.50;60.10;;;;;;4913990;29;20048;-86
2022/03/26 11:43:21;;;;;;;20.55;12.32;;;17.60;59.70;;;;;;4892989;29;20486;-86
2022/03/26 11:51:22;;;;;;;24.35;11.60;;;17.80;59.80;;;;;;4908581;29;20048;-86
2022/03/26 11:53:49;;;;;;;16.40;11.75;;;17.80;59.80;;;;;;4897086;29;20386;-86
2022/03/26 11:56:23;;;;;;;19.90;13.15;;;17.90;59.50;;;;;;4915032;29;20040;-86
2022/03/26 11:59:16;;;;;;;17.38;11.15;;;18.00;58.60;;;;;;4917112;29;20050;-86
2022/03/26 12:01:42;;;;;;;;;;;18.00;58.60;;;;;;4908065;29;20048;-86
2022/03/26 12:04:16;;;;;;;18.90;13.05;;;18.00;58.40;;;;;;4919233;29;19919;-86
2022/03/26 12:06:55;;;;;;;19.40;12.82;;;18.10;58.10;;;;;;4906436;29;20517;-87
2022/03/26 12:09:38;;;;;;;19.10;12.45;;;18.10;58.30;;;;;;4884108;29;20056;-87
2022/03/26 12:12:10;;;;;;;19.77;12.32;;;18.10;57.00;;;;;;4901050;29;20062;-87
2022/03/26 12:15:08;;;;;;;17.17;12.05;;;18.30;58.60;;;;;;4893138;29;20041;-87
2022/03/26 12:18:03;;;;;;;17.38;11.45;;;18.40;58.30;;;;;;4910573;29;20036;-87
2022/03/26 12:20:47;;;;;;;19.20;11.38;;;18.60;56.90;;;;;;4910023;29;20486;-86
2022/03/26 12:23:26;;;;;;;15.55;11.05;;;18.80;56.90;;;;;;4909835;29;20044;-87
2022/03/26 12:25:58;;;;;;;17.00;11.18;;;18.90;56.70;;;;;;4896400;29;20036;-86
2022/03/26 12:28:26;;;;;;;16.10;11.10;;;19.00;57.10;;;;;;4910304;29;20860;-86
2022/03/26 12:30:54;;;;;;;16.83;10.30;;;19.10;54.80;;;;;;4893289;29;20539;-86
2022/03/26 12:33:21;;;;;;;16.95;10.15;;;19.20;54.40;;;;;;4874238;29;20060;-86
2022/03/26 12:35:49;;;;;;;15.23;9.55;;;19.40;54.10;;;;;;4892942;29;20052;-86
2022/03/26 12:38:16;;;;;;;15.40;11.30;;;19.50;53.10;;;;;;4892390;29;20059;-86
2022/03/26 12:41:00;;;;;;;17.67;12.25;;;19.70;53.10;;;;;;4912742;29;20043;-86
2022/03/26 12:43:27;;;;;;;15.55;11.02;;;19.90;52.30;;;;;;4911595;29;20040;-86
2022/03/26 12:45:55;;;;;;;17.40;11.30;;;20.20;51.00;;;;;;4912467;29;20481;-86